createdAt,value
2018-06-14T00:01:56.936Z,15.56
2018-06-14T00:04:25.696Z,15.57
2018-06-14T00:06:54.339Z,15.55
2018-06-14T00:09:23.059Z,15.61
2018-06-14T00:11:51.755Z,15.60
2018-06-14T00:14:20.519Z,15.66
2018-06-14T00:16:49.212Z,15.60
2018-06-14T00:19:19.990Z,15.60
2018-06-14T00:21:48.627Z,15.65
2018-06-14T00:24:17.297Z,15.65
2018-06-14T00:26:45.964Z,15.70
2018-06-14T00:29:14.659Z,15.63
2018-06-14T00:31:43.357Z,15.51
2018-06-14T00:34:12.318Z,15.48
2018-06-14T00:36:41.007Z,15.51
2018-06-14T00:39:09.791Z,15.59
2018-06-14T00:41:38.481Z,15.40
2018-06-14T00:44:07.267Z,15.40
2018-06-14T00:46:35.976Z,15.61
2018-06-14T00:49:04.665Z,15.47
2018-06-14T00:51:33.325Z,15.43
2018-06-14T00:54:01.990Z,15.38
2018-06-14T00:56:36.204Z,15.30
2018-06-14T00:59:04.884Z,15.32
2018-06-14T01:01:33.595Z,15.45
2018-06-14T01:04:02.235Z,15.57
2018-06-14T01:06:30.989Z,15.38
2018-06-14T01:08:59.623Z,15.36
2018-06-14T01:11:28.259Z,15.37
2018-06-14T01:13:57.234Z,15.40
2018-06-14T01:16:25.891Z,15.39
2018-06-14T01:18:54.550Z,15.44
2018-06-14T01:21:23.223Z,15.41
2018-06-14T01:23:51.890Z,15.42
2018-06-14T01:26:20.559Z,15.36
2018-06-14T01:28:49.186Z,15.44
2018-06-14T01:31:17.851Z,15.19
2018-06-14T01:33:46.506Z,15.26
2018-06-14T01:36:15.270Z,15.27
2018-06-14T01:38:43.935Z,15.29
2018-06-14T01:41:12.542Z,15.25
2018-06-14T01:43:41.221Z,15.21
2018-06-14T01:46:10.086Z,15.26
2018-06-14T01:48:38.765Z,15.18
2018-06-14T01:51:07.452Z,15.18
2018-06-14T01:53:36.212Z,15.25
2018-06-14T01:56:05.091Z,15.24
2018-06-14T01:58:33.736Z,15.21
2018-06-14T02:01:02.391Z,15.11
2018-06-14T02:03:31.258Z,15.09
2018-06-14T02:05:59.908Z,15.07
2018-06-14T02:08:28.704Z,15.10
2018-06-14T02:10:57.360Z,15.15
2018-06-14T02:13:26.035Z,15.10
2018-06-14T02:15:55.003Z,15.13
2018-06-14T02:18:23.719Z,15.08
2018-06-14T02:20:52.402Z,15.04
2018-06-14T02:23:21.122Z,15.01
2018-06-14T02:25:49.812Z,15.00
2018-06-14T02:28:18.495Z,14.96
2018-06-14T02:30:47.214Z,14.97
2018-06-14T02:33:15.940Z,14.86
2018-06-14T02:35:44.732Z,14.97
2018-06-14T02:38:14.201Z,14.93
2018-06-14T02:40:42.895Z,14.89
2018-06-14T02:43:12.159Z,15.00
2018-06-14T02:45:40.889Z,14.98
2018-06-14T02:48:09.684Z,14.99
2018-06-14T02:50:38.319Z,15.06
2018-06-14T02:53:07.007Z,15.11
2018-06-14T02:55:35.719Z,15.09
2018-06-14T02:58:04.509Z,15.15
2018-06-14T03:00:33.163Z,15.21
2018-06-14T03:03:01.806Z,15.09
2018-06-14T03:05:30.427Z,15.09
2018-06-14T03:07:59.069Z,15.03
2018-06-14T03:10:27.800Z,14.99
2018-06-14T03:12:56.485Z,14.95
2018-06-14T03:15:26.299Z,14.93
2018-06-14T03:17:54.941Z,14.73
2018-06-14T03:20:24.551Z,14.88
2018-06-14T03:22:54.020Z,14.75
2018-06-14T03:25:22.699Z,14.66
2018-06-14T03:27:51.652Z,14.66
2018-06-14T03:30:20.702Z,14.54
2018-06-14T03:32:50.183Z,14.50
2018-06-14T03:35:19.516Z,14.42
2018-06-14T03:37:48.171Z,14.44
2018-06-14T03:40:16.946Z,14.30
2018-06-14T03:42:46.547Z,14.22
2018-06-14T03:45:21.379Z,14.26
2018-06-14T03:47:51.171Z,14.19
2018-06-14T03:50:19.794Z,14.09
2018-06-14T03:52:48.530Z,14.10
2018-06-14T03:55:17.223Z,14.19
2018-06-14T03:57:45.947Z,14.23
2018-06-14T04:00:14.685Z,14.33
2018-06-14T04:02:43.331Z,14.34
2018-06-14T04:05:11.980Z,14.24
2018-06-14T04:07:40.805Z,14.15
2018-06-14T04:10:09.590Z,14.28
2018-06-14T04:12:38.215Z,14.41
2018-06-14T04:15:06.920Z,14.37
2018-06-14T04:17:35.561Z,14.27
2018-06-14T04:20:04.227Z,14.48
2018-06-14T04:22:32.913Z,14.58
2018-06-14T04:25:01.670Z,14.75
2018-06-14T04:27:30.387Z,14.63
2018-06-14T04:29:59.071Z,14.43
2018-06-14T04:32:27.738Z,14.59
2018-06-14T04:34:56.380Z,14.58
2018-06-14T04:37:25.164Z,14.68
2018-06-14T04:39:53.835Z,14.70
2018-06-14T04:42:22.511Z,14.56
2018-06-14T04:44:51.164Z,14.45
2018-06-14T04:47:19.828Z,14.64
2018-06-14T04:49:48.493Z,14.65
2018-06-14T04:52:17.210Z,14.59
2018-06-14T04:54:47.898Z,14.42
2018-06-14T04:57:17.250Z,14.57
2018-06-14T04:59:45.927Z,14.68
2018-06-14T05:02:14.694Z,14.64
2018-06-14T05:04:43.315Z,14.64
2018-06-14T05:07:12.010Z,14.70
2018-06-14T05:09:40.724Z,14.69
2018-06-14T05:12:09.384Z,14.69
2018-06-14T05:14:38.105Z,14.70
2018-06-14T05:17:06.793Z,14.66
2018-06-14T05:19:35.445Z,14.68
2018-06-14T05:22:04.219Z,14.78
2018-06-14T05:24:32.944Z,14.85
2018-06-14T05:27:01.800Z,14.98
2018-06-14T05:29:30.451Z,14.98
2018-06-14T05:31:59.973Z,15.06
2018-06-14T05:34:28.603Z,14.84
2018-06-14T05:36:57.358Z,15.10
2018-06-14T05:39:25.997Z,15.00
2018-06-14T05:41:54.656Z,14.89
2018-06-14T05:44:23.386Z,15.08
2018-06-14T05:46:52.031Z,15.28
2018-06-14T05:49:20.666Z,15.14
2018-06-14T05:51:49.322Z,15.21
2018-06-14T05:54:18.008Z,15.11
2018-06-14T05:56:46.752Z,14.97
2018-06-14T05:59:15.450Z,14.91
2018-06-14T06:01:44.296Z,15.02
2018-06-14T06:04:12.913Z,15.06
2018-06-14T06:06:41.646Z,15.25
2018-06-14T06:09:11.674Z,15.43
2018-06-14T06:11:40.808Z,15.44
2018-06-14T06:14:09.695Z,15.68
2018-06-14T06:16:38.393Z,15.56
2018-06-14T06:19:08.210Z,15.78
2018-06-14T06:21:36.935Z,15.76
2018-06-14T06:24:05.604Z,15.77
2018-06-14T06:26:34.292Z,15.72
2018-06-14T06:29:02.916Z,16.07
2018-06-14T06:31:31.601Z,16.07
2018-06-14T06:34:00.264Z,16.15
2018-06-14T06:36:28.973Z,16.11
2018-06-14T06:38:57.727Z,16.32
2018-06-14T06:41:26.495Z,16.14
2018-06-14T06:43:55.214Z,16.13
2018-06-14T06:46:23.906Z,16.06
2018-06-14T06:48:52.564Z,16.36
2018-06-14T06:51:21.262Z,16.59
2018-06-14T06:53:49.906Z,16.41
2018-06-14T06:56:18.601Z,16.51
2018-06-14T06:58:47.275Z,16.61
2018-06-14T07:01:15.950Z,16.46
2018-06-14T07:03:44.632Z,16.64
2018-06-14T07:06:13.660Z,16.58
2018-06-14T07:08:42.285Z,16.75
2018-06-14T07:11:10.972Z,16.80
2018-06-14T07:13:39.634Z,16.61
2018-06-14T07:16:08.391Z,16.79
2018-06-14T07:18:37.086Z,16.95
2018-06-14T07:21:05.790Z,16.98
2018-06-14T07:23:34.423Z,17.31
2018-06-14T07:26:03.173Z,17.26
2018-06-14T07:28:31.812Z,17.96
2018-06-14T07:31:00.499Z,18.05
2018-06-14T07:33:29.199Z,18.44
2018-06-14T07:35:58.037Z,18.55
2018-06-14T07:38:26.756Z,19.12
2018-06-14T07:40:55.453Z,19.57
2018-06-14T07:43:24.094Z,19.45
2018-06-14T07:45:52.801Z,18.54
2018-06-14T07:48:21.489Z,18.88
2018-06-14T07:50:50.149Z,19.09
2018-06-14T07:53:18.860Z,19.37
2018-06-14T07:55:47.611Z,19.85
2018-06-14T07:58:16.644Z,20.03
2018-06-14T08:00:45.430Z,20.19
2018-06-14T08:03:14.164Z,20.43
2018-06-14T08:05:42.924Z,20.34
2018-06-14T08:08:11.539Z,20.32
2018-06-14T08:10:40.230Z,19.58
2018-06-14T08:13:09.272Z,19.81
2018-06-14T08:15:37.984Z,20.00
2018-06-14T08:18:06.728Z,19.36
2018-06-14T08:20:35.468Z,19.17
2018-06-14T08:23:04.074Z,19.01
2018-06-14T08:25:33.759Z,19.11
2018-06-14T08:28:02.396Z,19.12
2018-06-14T08:30:31.320Z,18.87
2018-06-14T08:33:00.022Z,19.37
2018-06-14T08:35:28.707Z,19.32
2018-06-14T08:37:57.447Z,19.84
2018-06-14T08:40:26.047Z,19.92
2018-06-14T08:42:54.687Z,20.12
2018-06-14T08:45:23.386Z,19.87
2018-06-14T08:47:52.058Z,19.96
2018-06-14T08:50:20.698Z,19.88
2018-06-14T08:52:49.466Z,19.22
2018-06-14T08:55:18.128Z,19.71
2018-06-14T08:57:46.827Z,19.95
2018-06-14T09:00:15.621Z,20.00
2018-06-14T09:02:44.268Z,20.09
2018-06-14T09:05:13.028Z,20.15
2018-06-14T09:07:41.685Z,20.10
2018-06-14T09:10:11.181Z,20.12
2018-06-14T09:12:39.995Z,20.32
2018-06-14T09:15:08.715Z,20.41
2018-06-14T09:17:37.419Z,20.29
2018-06-14T09:20:06.363Z,20.17
2018-06-14T09:22:35.014Z,20.48
2018-06-14T09:25:03.678Z,20.28
2018-06-14T09:27:32.843Z,20.46
2018-06-14T09:30:01.510Z,20.88
2018-06-14T09:32:30.178Z,21.13
2018-06-14T09:34:58.967Z,20.85
2018-06-14T09:37:27.706Z,20.35
2018-06-14T09:39:56.507Z,20.26
2018-06-14T09:42:25.284Z,20.12
2018-06-14T09:44:53.985Z,20.85
2018-06-14T09:47:22.681Z,22.04
2018-06-14T09:49:51.325Z,22.55
2018-06-14T09:52:20.060Z,22.67
2018-06-14T09:54:48.772Z,22.70
2018-06-14T09:57:17.419Z,22.58
2018-06-14T09:59:46.051Z,22.29
2018-06-14T10:02:14.787Z,21.74
2018-06-14T10:04:43.487Z,21.91
2018-06-14T10:07:12.244Z,21.70
2018-06-14T10:09:40.911Z,21.45
2018-06-14T10:12:09.603Z,21.23
2018-06-14T10:14:38.219Z,21.42
2018-06-14T10:17:06.855Z,21.50
2018-06-14T10:19:35.684Z,21.44
2018-06-14T10:22:04.459Z,21.53
2018-06-14T10:24:33.117Z,21.65
2018-06-14T10:27:02.195Z,21.50
2018-06-14T10:29:30.878Z,21.38
2018-06-14T10:31:59.564Z,21.73
2018-06-14T10:34:28.250Z,22.01
2018-06-14T10:36:57.376Z,21.07
2018-06-14T10:39:26.186Z,21.72
2018-06-14T10:41:54.920Z,22.61
2018-06-14T10:44:23.610Z,23.29
2018-06-14T10:46:52.248Z,23.61
2018-06-14T10:49:20.931Z,22.77
2018-06-14T10:51:49.651Z,23.17
2018-06-14T10:54:18.343Z,23.92
2018-06-14T10:56:47.036Z,24.12
2018-06-14T10:59:15.663Z,23.02
2018-06-14T11:01:44.363Z,22.50
2018-06-14T11:04:13.114Z,23.23
2018-06-14T11:06:41.823Z,23.66
2018-06-14T11:09:12.018Z,23.43
2018-06-14T11:11:40.996Z,22.54
2018-06-14T11:14:09.665Z,23.30
2018-06-14T11:16:38.340Z,23.65
2018-06-14T11:19:06.973Z,23.20
2018-06-14T11:21:35.914Z,22.63
2018-06-14T11:24:04.604Z,22.35
2018-06-14T11:26:33.264Z,22.77
2018-06-14T11:29:02.021Z,23.38
2018-06-14T11:31:31.344Z,22.48
2018-06-14T11:34:00.104Z,22.49
2018-06-14T11:36:28.759Z,23.11
2018-06-14T11:38:57.815Z,23.27
2018-06-14T11:41:26.484Z,23.17
2018-06-14T11:43:55.117Z,23.39
2018-06-14T11:46:24.843Z,23.01
2018-06-14T11:48:53.679Z,22.58
2018-06-14T11:51:22.401Z,22.23
2018-06-14T11:53:51.135Z,22.24
2018-06-14T11:56:19.836Z,22.77
2018-06-14T11:58:48.520Z,23.35
2018-06-14T12:01:17.278Z,23.99
2018-06-14T12:03:45.977Z,24.14
2018-06-14T12:06:14.667Z,24.30
2018-06-14T12:08:43.324Z,23.84
2018-06-14T12:11:12.040Z,23.57
2018-06-14T12:13:40.910Z,22.81
2018-06-14T12:16:09.577Z,23.29
2018-06-14T12:18:38.291Z,22.93
2018-06-14T12:21:06.994Z,23.07
2018-06-14T12:23:35.782Z,22.97
2018-06-14T12:26:05.755Z,23.26
2018-06-14T12:28:34.558Z,23.83
2018-06-14T12:31:03.244Z,24.00
2018-06-14T12:33:31.924Z,24.06
2018-06-14T12:36:00.638Z,24.29
2018-06-14T12:38:29.305Z,24.24
2018-06-14T12:40:57.990Z,24.57
2018-06-14T12:43:26.723Z,24.77
2018-06-14T12:45:55.414Z,24.85
2018-06-14T12:48:24.073Z,25.04
2018-06-14T12:50:52.763Z,24.30
2018-06-14T12:53:21.472Z,24.29
2018-06-14T12:55:50.123Z,24.56
2018-06-14T12:58:18.751Z,24.45
2018-06-14T13:00:47.424Z,24.75
2018-06-14T13:03:16.076Z,25.01
2018-06-14T13:05:44.807Z,24.77
2018-06-14T13:08:13.571Z,24.48
2018-06-14T13:10:42.307Z,24.32
2018-06-14T13:13:10.989Z,24.51
2018-06-14T13:15:39.675Z,24.59
2018-06-14T13:18:08.386Z,24.48
2018-06-14T13:20:37.050Z,24.02
2018-06-14T13:23:05.805Z,23.99
2018-06-14T13:25:34.613Z,24.06
2018-06-14T13:28:03.368Z,23.94
2018-06-14T13:30:32.081Z,24.02
2018-06-14T13:33:00.818Z,24.06
2018-06-14T13:35:29.614Z,23.81
2018-06-14T13:37:58.726Z,23.84
2018-06-14T13:40:27.473Z,23.65
2018-06-14T13:42:56.178Z,23.89
2018-06-14T13:45:24.878Z,23.85
2018-06-14T13:47:53.526Z,24.17
2018-06-14T13:50:22.293Z,24.18
2018-06-14T13:52:51.401Z,24.28
2018-06-14T13:55:20.065Z,23.94
2018-06-14T13:57:48.741Z,23.87
2018-06-14T14:00:17.550Z,23.64
2018-06-14T14:02:46.236Z,23.28
2018-06-14T14:05:14.927Z,23.16
2018-06-14T14:07:43.627Z,22.80
2018-06-14T14:10:12.300Z,22.79
2018-06-14T14:12:40.943Z,22.76
2018-06-14T14:15:09.624Z,22.97
2018-06-14T14:17:38.277Z,22.98
2018-06-14T14:20:06.914Z,23.11
2018-06-14T14:22:35.661Z,22.84
2018-06-14T14:25:04.342Z,22.53
2018-06-14T14:27:32.940Z,22.43
2018-06-14T14:30:01.607Z,22.69
2018-06-14T14:32:30.652Z,22.65
2018-06-14T14:34:59.324Z,22.68
2018-06-14T14:37:27.983Z,22.88
2018-06-14T14:39:56.657Z,22.99
2018-06-14T14:42:25.322Z,22.78
2018-06-14T14:44:54.013Z,22.92
2018-06-14T14:47:22.696Z,23.00
2018-06-14T14:49:51.357Z,22.88
2018-06-14T14:52:20.032Z,22.90
2018-06-14T14:54:48.708Z,22.86
2018-06-14T14:57:17.392Z,22.76
2018-06-14T14:59:46.044Z,22.71
2018-06-14T15:02:14.784Z,22.47
2018-06-14T15:04:43.431Z,22.55
2018-06-14T15:07:12.571Z,22.48
2018-06-14T15:09:41.288Z,22.56
2018-06-14T15:12:09.997Z,22.53
2018-06-14T15:14:38.666Z,22.49
2018-06-14T15:17:07.374Z,22.35
2018-06-14T15:19:36.001Z,22.56
2018-06-14T15:22:04.681Z,22.66
2018-06-14T15:24:33.361Z,22.42
2018-06-14T15:27:01.979Z,22.52
2018-06-14T15:29:30.681Z,22.52
2018-06-14T15:31:59.978Z,22.47
2018-06-14T15:34:28.640Z,22.36
2018-06-14T15:36:57.354Z,22.60
2018-06-14T15:39:26.002Z,22.55
2018-06-14T15:41:54.677Z,22.48
2018-06-14T15:44:23.359Z,22.28
2018-06-14T15:46:52.061Z,22.43
2018-06-14T15:49:20.756Z,22.64
2018-06-14T15:51:49.485Z,22.84
2018-06-14T15:54:18.249Z,22.83
2018-06-14T15:56:46.944Z,22.67
2018-06-14T15:59:16.566Z,22.68
2018-06-14T16:01:45.332Z,22.55
2018-06-14T16:04:14.104Z,22.41
2018-06-14T16:06:42.758Z,22.23
2018-06-14T16:09:12.039Z,22.20
2018-06-14T16:11:40.691Z,22.02
2018-06-14T16:14:09.401Z,22.10
2018-06-14T16:16:38.065Z,22.21
2018-06-14T16:19:06.767Z,22.33
2018-06-14T16:21:35.556Z,22.05
2018-06-14T16:24:04.226Z,22.54
2018-06-14T16:26:32.845Z,22.44
2018-06-14T16:29:01.529Z,22.31
2018-06-14T16:31:30.305Z,22.25
2018-06-14T16:33:59.151Z,22.14
2018-06-14T16:36:27.885Z,22.13
2018-06-14T16:38:56.724Z,22.10
2018-06-14T16:41:25.363Z,22.06
2018-06-14T16:43:54.059Z,22.06
2018-06-14T16:46:22.699Z,22.08
2018-06-14T16:48:51.314Z,22.22
2018-06-14T16:51:19.961Z,22.09
2018-06-14T16:53:48.605Z,22.16
2018-06-14T16:56:17.363Z,22.19
2018-06-14T16:58:46.020Z,22.10
2018-06-14T17:01:14.700Z,22.10
2018-06-14T17:03:43.313Z,22.14
2018-06-14T17:06:12.017Z,22.05
2018-06-14T17:08:40.647Z,21.90
2018-06-14T17:11:09.374Z,21.89
2018-06-14T17:13:38.094Z,21.95
2018-06-14T17:16:07.392Z,21.94
2018-06-14T17:18:36.197Z,21.77
2018-06-14T17:21:05.861Z,21.98
2018-06-14T17:23:34.567Z,21.91
2018-06-14T17:26:03.182Z,21.73
2018-06-14T17:28:31.891Z,21.69
2018-06-14T17:31:00.609Z,21.72
2018-06-14T17:33:30.002Z,21.48
2018-06-14T17:35:58.678Z,21.55
2018-06-14T17:38:28.104Z,21.46
2018-06-14T17:40:56.950Z,21.48
2018-06-14T17:43:25.740Z,21.52
2018-06-14T17:45:54.525Z,21.39
2018-06-14T17:48:23.219Z,21.47
2018-06-14T17:50:51.977Z,21.42
2018-06-14T17:53:20.653Z,21.38
2018-06-14T17:55:49.385Z,21.33
2018-06-14T17:58:18.097Z,21.31
2018-06-14T18:00:46.741Z,21.29
2018-06-14T18:03:15.407Z,21.25
2018-06-14T18:05:44.103Z,21.10
2018-06-14T18:08:12.815Z,21.16
2018-06-14T18:10:41.478Z,21.22
2018-06-14T18:13:10.245Z,21.23
2018-06-14T18:15:38.932Z,21.09
2018-06-14T18:18:07.654Z,21.13
2018-06-14T18:20:37.035Z,21.18
2018-06-14T18:23:05.760Z,21.01
2018-06-14T18:25:34.484Z,20.98
2018-06-14T18:28:03.260Z,21.02
2018-06-14T18:30:31.910Z,20.94
2018-06-14T18:33:00.550Z,20.94
2018-06-14T18:35:29.331Z,20.91
2018-06-14T18:37:58.100Z,20.92
2018-06-14T18:40:27.152Z,21.07
2018-06-14T18:42:55.924Z,20.96
2018-06-14T18:45:24.658Z,20.86
2018-06-14T18:47:53.384Z,21.00
2018-06-14T18:50:22.137Z,20.88
2018-06-14T18:52:50.959Z,20.85
2018-06-14T18:55:19.679Z,20.91
2018-06-14T18:57:48.362Z,20.91
2018-06-14T19:00:17.051Z,20.80
2018-06-14T19:02:45.851Z,20.64
2018-06-14T19:05:14.578Z,20.61
2018-06-14T19:07:43.317Z,20.61
2018-06-14T19:10:12.004Z,20.72
2018-06-14T19:12:40.679Z,20.68
2018-06-14T19:15:09.383Z,20.50
2018-06-14T19:17:38.322Z,20.50
2018-06-14T19:20:07.783Z,20.51
2018-06-14T19:22:36.852Z,20.55
2018-06-14T19:25:05.729Z,20.39
2018-06-14T19:27:34.486Z,20.29
2018-06-14T19:30:03.219Z,20.25
2018-06-14T19:32:31.880Z,20.31
2018-06-14T19:35:00.921Z,20.14
2018-06-14T19:37:29.960Z,20.19
2018-06-14T19:39:58.723Z,20.29
2018-06-14T19:42:27.491Z,20.30
2018-06-14T19:44:56.152Z,20.40
2018-06-14T19:47:24.964Z,20.39
2018-06-14T19:49:54.517Z,19.23
2018-06-14T19:52:23.231Z,18.99
2018-06-14T19:54:51.978Z,18.71
2018-06-14T19:57:20.672Z,18.66
2018-06-14T19:59:50.149Z,18.52
2018-06-14T20:02:18.815Z,18.38
2018-06-14T20:04:47.946Z,18.32
2018-06-14T20:07:16.629Z,18.24
2018-06-14T20:09:45.416Z,18.10
2018-06-14T20:12:14.075Z,17.96
2018-06-14T20:14:42.734Z,17.99
2018-06-14T20:17:11.441Z,17.95
2018-06-14T20:19:40.491Z,17.92
2018-06-14T20:22:09.203Z,17.92
2018-06-14T20:24:37.881Z,17.94
2018-06-14T20:27:08.228Z,17.98
2018-06-14T20:29:36.936Z,17.98
2018-06-14T20:32:05.619Z,17.94
2018-06-14T20:34:34.331Z,17.96
2018-06-14T20:37:03.045Z,18.02
2018-06-14T20:39:31.704Z,17.87
2018-06-14T20:42:00.482Z,17.87
2018-06-14T20:44:29.215Z,17.85
2018-06-14T20:46:57.898Z,17.90
2018-06-14T20:49:26.793Z,17.92
2018-06-14T20:51:55.530Z,17.99
2018-06-14T20:54:24.299Z,17.97
2018-06-14T20:56:53.106Z,17.94
2018-06-14T20:59:21.837Z,17.87
2018-06-14T21:01:50.513Z,17.77
2018-06-14T21:04:19.232Z,17.82
2018-06-14T21:06:47.931Z,17.97
2018-06-14T21:09:16.643Z,17.95
2018-06-14T21:11:45.412Z,18.02
2018-06-14T21:14:14.131Z,18.08
2018-06-14T21:16:42.856Z,17.95
2018-06-14T21:19:11.581Z,17.81
2018-06-14T21:21:40.424Z,17.92
2018-06-14T21:24:09.158Z,17.69
2018-06-14T21:26:37.910Z,17.83
2018-06-14T21:29:06.569Z,17.60
2018-06-14T21:31:35.309Z,17.65
2018-06-14T21:34:04.024Z,17.46
2018-06-14T21:36:32.720Z,17.45
2018-06-14T21:39:01.547Z,17.41
2018-06-14T21:41:31.233Z,17.54
2018-06-14T21:44:00.064Z,17.47
2018-06-14T21:46:28.817Z,17.43
2018-06-14T21:48:57.656Z,17.72
2018-06-14T21:51:26.440Z,17.48
2018-06-14T21:53:55.113Z,17.46
2018-06-14T21:56:23.824Z,17.45
2018-06-14T21:58:52.512Z,17.51
2018-06-14T22:01:21.172Z,17.35
2018-06-14T22:03:56.168Z,17.49
2018-06-14T22:06:25.173Z,17.60
2018-06-14T22:08:53.946Z,17.43
2018-06-14T22:11:22.571Z,17.55
2018-06-14T22:13:51.342Z,17.46
2018-06-14T22:16:20.085Z,17.45
2018-06-14T22:18:48.754Z,17.54
2018-06-14T22:21:18.093Z,17.46
2018-06-14T22:23:47.669Z,17.45
2018-06-14T22:26:16.474Z,17.43
2018-06-14T22:28:45.941Z,17.40
2018-06-14T22:31:14.702Z,17.58
2018-06-14T22:33:54.837Z,17.45
2018-06-14T22:36:23.597Z,17.36
2018-06-14T22:38:52.251Z,17.22
2018-06-14T22:41:20.984Z,17.29
2018-06-14T22:43:49.803Z,17.23
2018-06-14T22:46:18.565Z,17.33
2018-06-14T22:48:47.215Z,17.20
2018-06-14T22:51:19.193Z,17.13
2018-06-14T22:53:47.879Z,17.25
2018-06-14T22:56:16.637Z,17.25
2018-06-14T22:58:45.963Z,17.24
2018-06-14T23:01:31.196Z,17.28
2018-06-14T23:04:00.584Z,17.24
2018-06-14T23:06:29.385Z,17.30
2018-06-14T23:08:58.851Z,17.29
2018-06-14T23:11:27.518Z,17.22
2018-06-14T23:13:56.196Z,17.18
2018-06-14T23:16:24.884Z,17.09
2018-06-14T23:18:53.555Z,17.15
2018-06-14T23:21:22.247Z,17.18
2018-06-14T23:23:50.951Z,17.19
2018-06-14T23:26:19.655Z,17.28
2018-06-14T23:28:48.341Z,17.18
2018-06-14T23:31:16.963Z,17.30
2018-06-14T23:33:45.635Z,17.16
2018-06-14T23:36:14.300Z,16.98
2018-06-14T23:38:42.976Z,17.11
2018-06-14T23:41:11.636Z,17.21
2018-06-14T23:43:40.302Z,17.13
2018-06-14T23:46:08.967Z,16.96
2018-06-14T23:48:38.267Z,17.13
2018-06-14T23:51:07.722Z,17.14
2018-06-14T23:53:38.149Z,17.05
2018-06-14T23:56:06.834Z,17.07
2018-06-14T23:58:35.490Z,16.90
